Time;durP1;ratioP1;P1;durP2;ratioP2;P2;SDS_P1;SDS_P2;PMS_P1;PMS_P2;Temp;Humidity;BMP_temperature;BMP_pressure;BME280_temperature;BME280_humidity;BME280_pressure;Samples;Min_cycle;Max_cycle;Signal;HPM_P1;HPM_P2
2023/08/11 00:01:15;;;;;;;2.33;1.40;;;;;;;20.78;64.89;101158.47;5076976;28;20046;-54
2023/08/11 00:03:43;;;;;;;1.38;1.27;;;;;;;21.10;64.13;101161.03;5070113;28;20110;-54
2023/08/11 00:06:09;;;;;;;1.45;1.35;;;;;;;21.16;63.74;101154.53;5090576;28;20082;-54
2023/08/11 00:08:38;;;;;;;1.27;1.17;;;;;;;21.00;64.62;101156.38;5092171;28;20077;-54
2023/08/11 00:11:04;;;;;;;1.92;1.48;;;;;;;21.08;64.75;101164.00;5091408;28;20020;-54
2023/08/11 00:13:31;;;;;;;2.50;1.40;;;;;;;20.79;65.63;101160.13;5091630;28;20302;-53
2023/08/11 00:15:57;;;;;;;2.22;1.50;;;;;;;20.53;65.89;101153.72;5091274;28;20031;-53
2023/08/11 00:18:23;;;;;;;2.30;1.52;;;;;;;20.64;66.39;101155.41;5091771;28;20075;-54
2023/08/11 00:20:49;;;;;;;1.45;1.30;;;;;;;20.83;65.25;101147.63;5092038;28;20142;-54
2023/08/11 00:23:16;;;;;;;2.22;1.55;;;;;;;20.94;65.09;101146.56;5085471;28;20028;-55
2023/08/11 00:25:42;;;;;;;2.05;1.60;;;;;;;20.59;66.36;101149.94;5075066;28;20032;-53
2023/08/11 00:28:08;;;;;;;1.42;1.33;;;;;;;20.23;67.37;101147.03;5074973;28;20190;-53
2023/08/11 00:30:35;;;;;;;1.48;1.33;;;;;;;20.34;67.69;101149.81;5074786;28;20158;-54
2023/08/11 00:33:02;;;;;;;1.80;1.40;;;;;;;20.07;68.58;101152.63;5074930;28;20386;-53
2023/08/11 00:35:28;;;;;;;2.50;1.70;;;;;;;19.58;69.80;101150.84;5074702;28;20482;-54
2023/08/11 00:37:55;;;;;;;1.83;1.60;;;;;;;19.57;70.85;101156.56;5084375;28;20024;-54
2023/08/11 00:40:22;;;;;;;2.13;1.45;;;;;;;19.55;70.45;101154.09;5090246;28;20081;-54
2023/08/11 00:42:49;;;;;;;2.15;1.75;;;;;;;19.10;72.37;101159.88;5101551;28;20063;-53
2023/08/11 00:45:16;;;;;;;3.20;1.70;;;;;;;19.17;72.51;101166.75;5094018;28;20056;-53
2023/08/11 00:47:45;;;;;;;1.90;1.70;;;;;;;18.94;73.64;101169.75;5094877;28;20074;-53
2023/08/11 00:50:13;;;;;;;2.17;1.70;;;;;;;18.81;73.59;101159.28;5082327;28;20055;-52
2023/08/11 00:52:40;;;;;;;1.80;1.50;;;;;;;19.02;73.31;101160.34;5075228;28;20036;-52
2023/08/11 00:55:10;;;;;;;2.72;1.80;;;;;;;18.52;74.92;101169.47;5073887;28;20029;-52
2023/08/11 00:57:37;;;;;;;3.00;2.00;;;;;;;18.53;75.67;101160.25;5090475;28;20060;-52
2023/08/11 01:00:12;;;;;;;1.73;1.63;;;;;;;18.81;75.60;101159.28;5093955;28;20039;-53
2023/08/11 01:02:42;;;;;;;2.47;2.00;;;;;;;18.56;75.43;101157.88;5085105;28;20039;-53
2023/08/11 01:05:14;;;;;;;4.13;2.30;;;;;;;18.50;76.87;101160.78;5077200;28;20028;-55
2023/08/11 01:08:03;;;;;;;1.92;1.80;;;;;;;18.31;77.22;101160.22;5074156;28;20020;-55
2023/08/11 01:11:02;;;;;;;3.88;2.35;;;;;;;18.39;77.60;101159.81;5074166;28;20033;-55
2023/08/11 01:13:31;;;;;;;2.97;2.53;;;;;;;18.25;78.53;101161.22;5094067;28;20032;-55
2023/08/11 01:16:00;;;;;;;2.75;2.00;;;;;;;18.28;78.97;101158.03;5085632;28;20032;-55
2023/08/11 01:18:30;;;;;;;2.08;1.80;;;;;;;18.48;77.87;101161.81;5076428;28;20050;-55
2023/08/11 01:21:03;;;;;;;2.55;1.85;;;;;;;18.22;78.33;101167.16;5074125;28;20025;-56
2023/08/11 01:23:29;;;;;;;1.98;1.75;;;;;;;18.35;78.60;101162.19;5073961;28;20394;-55
2023/08/11 01:25:58;;;;;;;4.30;1.88;;;;;;;18.31;78.56;101163.75;5073582;28;20024;-54
2023/08/11 01:28:25;;;;;;;2.20;1.80;;;;;;;18.51;78.27;101162.41;5073976;28;20021;-55
2023/08/11 01:30:51;;;;;;;2.25;1.50;;;;;;;18.60;77.88;101155.47;5073836;28;20098;-54
2023/08/11 01:33:17;;;;;;;3.25;2.13;;;;;;;18.57;77.26;101154.09;5073079;28;20115;-55
2023/08/11 01:35:44;;;;;;;3.90;2.20;;;;;;;18.30;78.64;101155.88;5073613;28;20025;-58
2023/08/11 01:38:10;;;;;;;2.92;1.80;;;;;;;18.59;77.91;101159.25;5073911;28;20060;-57
2023/08/11 01:40:38;;;;;;;2.40;1.83;;;;;;;18.84;77.27;101151.47;5075680;28;20139;-55
2023/08/11 01:43:07;;;;;;;3.10;2.22;;;;;;;18.75;77.13;101149.44;5076733;28;20080;-61
2023/08/11 01:45:34;;;;;;;3.55;2.58;;;;;;;18.87;76.22;101148.22;5074496;28;20103;-59
2023/08/11 01:48:02;;;;;;;4.15;2.90;;;;;;;18.66;76.93;101154.47;5073590;28;20032;-52
2023/08/11 01:50:29;;;;;;;2.42;2.00;;;;;;;18.51;77.02;101156.97;5073555;28;20101;-50
2023/08/11 01:52:56;;;;;;;2.47;2.00;;;;;;;18.88;75.88;101149.91;5073312;28;20024;-53
2023/08/11 01:55:24;;;;;;;2.30;2.00;;;;;;;18.58;76.56;101163.84;5078128;28;20066;-56
2023/08/11 01:57:51;;;;;;;2.78;1.83;;;;;;;18.68;76.33;101153.16;5072963;28;20063;-59
2023/08/11 02:00:17;;;;;;;3.15;2.00;;;;;;;18.78;76.76;101144.34;5073638;28;20039;-58
2023/08/11 02:02:44;;;;;;;1.92;1.67;;;;;;;18.79;75.23;101153.31;5079188;28;20481;-57
2023/08/11 02:05:12;;;;;;;2.15;1.95;;;;;;;18.90;75.59;101150.44;5072772;28;20112;-58
2023/08/11 02:07:39;;;;;;;2.00;1.80;;;;;;;18.85;75.24;101155.81;5072976;28;20031;-57
2023/08/11 02:10:08;;;;;;;2.22;1.80;;;;;;;19.10;74.84;101152.59;5074427;28;20146;-57
2023/08/11 02:12:36;;;;;;;3.35;2.10;;;;;;;18.77;75.46;101150.00;5085115;28;20032;-51
2023/08/11 02:15:04;;;;;;;2.38;1.63;;;;;;;19.13;74.17;101151.25;5087809;28;20027;-51
2023/08/11 02:17:31;;;;;;;2.17;1.90;;;;;;;19.15;73.30;101158.03;5093183;28;20078;-50
2023/08/11 02:19:58;;;;;;;2.33;2.00;;;;;;;18.89;74.26;101148.00;5088935;28;20546;-51
2023/08/11 02:22:25;;;;;;;2.42;2.00;;;;;;;18.85;74.62;101155.00;5087062;28;20035;-51
2023/08/11 02:24:51;;;;;;;2.38;1.92;;;;;;;18.62;75.54;101169.59;5072819;28;20110;-51
2023/08/11 02:27:18;;;;;;;1.75;1.63;;;;;;;18.57;75.41;101164.09;5078143;28;20107;-51
2023/08/11 02:29:44;;;;;;;2.42;2.15;;;;;;;18.48;76.28;101172.66;5065590;22;20060;-51
2023/08/11 02:32:11;;;;;;;2.50;1.90;;;;;;;18.61;75.21;101174.22;5052732;28;20036;-51
2023/08/11 02:34:38;;;;;;;1.75;1.65;;;;;;;18.29;76.54;101173.22;5052313;28;20060;-52
2023/08/11 02:37:04;;;;;;;2.17;1.67;;;;;;;18.15;77.34;101172.72;5052798;28;20025;-51
2023/08/11 02:39:30;;;;;;;4.03;1.70;;;;;;;18.16;77.16;101177.91;5052958;28;20071;-51
2023/08/11 02:41:57;;;;;;;1.80;1.70;;;;;;;17.64;79.43;101180.81;5051702;28;20356;-51
2023/08/11 02:44:23;;;;;;;1.70;1.60;;;;;;;17.73;78.84;101175.88;5045037;28;20029;-48
2023/08/11 02:46:50;;;;;;;1.65;1.55;;;;;;;17.86;78.29;101177.44;5051870;28;20033;-50
2023/08/11 02:49:17;;;;;;;1.63;1.50;;;;;;;17.74;78.29;101185.63;5044134;28;20029;-50
2023/08/11 02:51:43;;;;;;;2.47;1.55;;;;;;;17.45;79.98;101192.13;5051957;28;20033;-52
2023/08/11 02:54:11;;;;;;;2.45;1.63;;;;;;;17.37;80.12;101185.19;5052336;28;20037;-51
2023/08/11 02:56:44;;;;;;;1.92;1.70;;;;;;;17.18;80.93;101187.28;5052368;28;20483;-50
2023/08/11 02:59:10;;;;;;;1.95;1.42;;;;;;;17.13;81.61;101190.72;5052237;28;20025;-51
2023/08/11 03:01:37;;;;;;;1.88;1.50;;;;;;;17.26;81.00;101192.31;5052443;28;20021;-51
2023/08/11 03:04:03;;;;;;;1.52;1.15;;;;;;;17.18;80.79;101189.19;5052020;28;20020;-50
2023/08/11 03:06:29;;;;;;;1.52;1.40;;;;;;;17.06;81.04;101195.44;5052026;28;20112;-51
2023/08/11 03:08:56;;;;;;;5.55;1.90;;;;;;;16.68;82.90;101200.56;5051868;28;20028;-51
2023/08/11 03:11:22;;;;;;;2.00;1.60;;;;;;;16.71;83.07;101200.09;5051709;28;20041;-52
2023/08/11 03:13:48;;;;;;;1.90;1.50;;;;;;;16.65;83.41;101201.84;5051225;28;20036;-50
2023/08/11 03:16:15;;;;;;;2.03;1.33;;;;;;;16.50;84.94;101205.06;5042038;28;20025;-50
2023/08/11 03:18:41;;;;;;;2.78;1.42;;;;;;;16.51;84.34;101205.88;5051853;28;20111;-48
2023/08/11 03:21:07;;;;;;;1.95;1.70;;;;;;;16.24;85.53;101208.22;5052043;28;20025;-54
2023/08/11 03:23:35;;;;;;;2.78;1.55;;;;;;;16.23;86.01;101212.00;5052097;28;20029;-51
2023/08/11 03:26:03;;;;;;;1.85;1.67;;;;;;;16.05;86.88;101215.63;5051577;28;20491;-50
2023/08/11 03:28:30;;;;;;;2.85;2.20;;;;;;;16.03;87.25;101217.72;5052072;28;20120;-49
2023/08/11 03:30:59;;;;;;;2.05;1.58;;;;;;;15.92;87.15;101222.03;5052250;28;20039;-51
2023/08/11 03:33:25;;;;;;;3.35;2.20;;;;;;;15.79;88.26;101227.66;5051638;28;20037;-51
2023/08/11 03:35:51;;;;;;;1.98;1.40;;;;;;;15.81;88.15;101225.53;5051765;28;20071;-50
2023/08/11 03:38:18;;;;;;;2.42;1.38;;;;;;;15.54;88.75;101228.59;5051883;28;20017;-48
2023/08/11 03:40:44;;;;;;;2.90;1.00;;;;;;;15.62;88.26;101230.16;5051187;28;20033;-50
2023/08/11 03:43:10;;;;;;;1.50;1.10;;;;;;;15.42;90.24;101233.13;5051242;28;20031;-50
2023/08/11 03:45:36;;;;;;;1.73;1.00;;;;;;;15.57;89.18;101235.41;5051470;28;20103;-51
2023/08/11 03:48:03;;;;;;;3.22;0.90;;;;;;;15.58;88.30;101253.25;5051699;28;20028;-50
2023/08/11 03:50:29;;;;;;;1.17;0.98;;;;;;;15.39;89.15;101246.25;5051496;28;20029;-51
2023/08/11 03:52:56;;;;;;;2.05;1.33;;;;;;;15.32;88.88;101235.53;5045788;28;20021;-48
2023/08/11 03:55:22;;;;;;;2.85;1.73;;;;;;;15.24;88.84;101241.25;5030922;28;20075;-50
2023/08/11 03:57:49;;;;;;;2.28;1.98;;;;;;;15.08;89.96;101245.38;5038002;28;20025;-51
2023/08/11 04:00:15;;;;;;;3.00;2.55;;;;;;;15.08;91.08;101240.00;5036759;28;20049;-51
2023/08/11 04:02:45;;;;;;;2.97;2.40;;;;;;;14.99;92.06;101241.34;5035606;28;20037;-49
2023/08/11 04:05:12;;;;;;;2.83;2.53;;;;;;;15.07;91.48;101245.63;5035135;28;20021;-50
2023/08/11 04:07:39;;;;;;;2.63;2.42;;;;;;;15.03;91.38;101251.47;5035400;28;20021;-50
2023/08/11 04:10:06;;;;;;;3.60;2.25;;;;;;;14.98;91.38;101259.38;5041060;28;20106;-50
2023/08/11 04:12:32;;;;;;;3.72;1.85;;;;;;;14.94;91.60;101252.81;5035408;28;20045;-50
2023/08/11 04:14:59;;;;;;;2.85;2.20;;;;;;;14.73;93.06;101248.69;5035043;28;20028;-49
2023/08/11 04:17:26;;;;;;;2.58;2.30;;;;;;;14.74;93.80;101255.72;5034798;28;20028;-50
2023/08/11 04:19:56;;;;;;;3.00;2.50;;;;;;;14.84;93.21;101257.09;5054733;23;20037;-49
2023/08/11 04:22:22;;;;;;;3.05;2.53;;;;;;;14.89;93.11;101255.38;5075220;28;20530;-51
2023/08/11 04:24:49;;;;;;;2.92;2.63;;;;;;;14.95;92.78;101250.94;5082562;28;20031;-51
2023/08/11 04:27:15;;;;;;;2.53;2.25;;;;;;;15.08;92.62;101250.78;5075387;28;20119;-50
2023/08/11 04:29:41;;;;;;;3.22;2.92;;;;;;;15.12;92.31;101249.28;5074508;28;20064;-48
2023/08/11 04:32:07;;;;;;;3.35;2.58;;;;;;;15.15;92.28;101258.78;5074758;28;20428;-49
2023/08/11 04:34:34;;;;;;;2.50;2.30;;;;;;;15.04;92.53;101260.38;5074306;28;20059;-51
2023/08/11 04:37:00;;;;;;;2.65;2.42;;;;;;;15.04;92.70;101247.72;5075118;28;20489;-50
2023/08/11 04:39:27;;;;;;;3.88;2.90;;;;;;;15.19;92.07;101257.28;5074809;28;20108;-48
2023/08/11 04:41:53;;;;;;;3.70;2.65;;;;;;;15.03;92.93;101269.50;5074721;28;20544;-50
2023/08/11 04:44:20;;;;;;;2.63;2.22;;;;;;;15.03;93.02;101262.25;5074233;28;20120;-48
2023/08/11 04:46:46;;;;;;;3.67;2.40;;;;;;;15.04;93.10;101257.66;5085740;28;20019;-50
2023/08/11 04:49:12;;;;;;;3.20;2.10;;;;;;;14.89;94.05;101263.44;5091376;28;20031;-50
2023/08/11 04:51:38;;;;;;;2.75;2.05;;;;;;;15.06;93.54;101266.38;5084084;28;20025;-50
2023/08/11 04:54:07;;;;;;;2.40;1.67;;;;;;;15.08;92.52;101266.13;5074258;28;20063;-50
2023/08/11 04:56:33;;;;;;;5.03;2.20;;;;;;;15.16;92.57;101268.56;5080592;28;20020;-48
2023/08/11 04:58:59;;;;;;;4.20;2.72;;;;;;;15.23;92.08;101269.28;5074509;28;20095;-50
2023/08/11 05:01:25;;;;;;;1.58;1.48;;;;;;;15.26;91.67;101272.34;5074354;28;20017;-51
2023/08/11 05:03:52;;;;;;;2.35;1.50;;;;;;;15.17;91.98;101262.91;5073999;28;20437;-50
2023/08/11 05:06:19;;;;;;;2.90;1.80;;;;;;;15.16;92.38;101263.97;5083128;28;20069;-50
2023/08/11 05:08:47;;;;;;;4.45;2.40;;;;;;;15.22;92.55;101265.78;5083446;28;20411;-49
2023/08/11 05:11:13;;;;;;;4.05;2.78;;;;;;;15.18;93.75;101258.34;5074039;28;20074;-50
2023/08/11 05:13:40;;;;;;;5.00;2.50;;;;;;;15.20;93.88;101257.06;5073756;28;20548;-49
2023/08/11 05:16:06;;;;;;;7.55;2.88;;;;;;;15.18;93.87;101258.34;5074253;28;20032;-51
2023/08/11 05:18:32;;;;;;;4.85;2.60;;;;;;;15.23;93.12;101261.19;5073814;28;20028;-50
2023/08/11 05:20:58;;;;;;;3.65;2.30;;;;;;;15.26;92.69;101258.84;5073843;28;20049;-50
2023/08/11 05:23:25;;;;;;;3.42;2.15;;;;;;;15.25;92.77;101259.09;5083356;28;20032;-50
2023/08/11 05:25:52;;;;;;;2.83;2.42;;;;;;;15.32;92.12;101268.75;5094160;28;20474;-50
2023/08/11 05:28:19;;;;;;;3.20;2.25;;;;;;;15.23;92.28;101258.50;5094175;28;20055;-51
2023/08/11 05:30:45;;;;;;;4.53;2.40;;;;;;;15.15;92.55;101259.59;5085524;28;20085;-49
2023/08/11 05:33:12;;;;;;;3.42;2.22;;;;;;;15.22;91.93;101259.56;5073144;28;20028;-50
2023/08/11 05:35:42;;;;;;;4.07;2.20;;;;;;;15.26;92.36;101248.06;5073517;28;20040;-50
2023/08/11 05:38:08;;;;;;;4.30;2.72;;;;;;;15.26;92.45;101250.75;5073612;28;20036;-50
2023/08/11 05:40:34;;;;;;;3.75;2.60;;;;;;;15.42;91.81;101248.50;5073780;28;20036;-48
2023/08/11 05:43:00;;;;;;;5.32;2.75;;;;;;;15.39;92.03;101251.66;5074365;28;20063;-50
2023/08/11 05:45:27;;;;;;;4.18;3.15;;;;;;;15.43;91.96;101253.66;5073145;28;20027;-48
2023/08/11 05:47:53;;;;;;;5.18;3.30;;;;;;;15.39;92.11;101249.78;5073280;28;20484;-48
2023/08/11 05:50:20;;;;;;;5.43;3.38;;;;;;;15.48;91.41;101253.78;5073791;28;20409;-50
2023/08/11 05:52:46;;;;;;;5.07;3.13;;;;;;;15.51;91.44;101249.84;5073650;28;20052;-51
2023/08/11 05:55:12;;;;;;;5.25;2.90;;;;;;;15.55;91.12;101253.72;5072963;28;20024;-49
2023/08/11 05:57:38;;;;;;;4.20;3.03;;;;;;;15.54;91.43;101250.19;5073437;28;20039;-48
2023/08/11 06:00:05;;;;;;;4.00;3.08;;;;;;;15.51;91.62;101247.13;5073151;28;20112;-49
2023/08/11 06:02:32;;;;;;;4.63;3.60;;;;;;;15.56;91.73;101248.09;5073824;28;20035;-50
2023/08/11 06:04:58;;;;;;;6.13;4.05;;;;;;;15.59;91.82;101255.72;5071819;28;20073;-49
2023/08/11 06:07:24;;;;;;;7.70;4.65;;;;;;;15.61;92.13;101242.00;5081866;28;20024;-50
2023/08/11 06:09:51;;;;;;;10.15;4.50;;;;;;;15.62;92.56;101254.44;5072894;28;20027;-48
2023/08/11 06:12:17;;;;;;;5.93;4.05;;;;;;;15.49;92.89;101254.63;5100834;28;20499;-50
2023/08/11 06:14:43;;;;;;;5.68;3.85;;;;;;;15.56;92.65;101264.28;5089367;28;20610;-50
2023/08/11 06:17:10;;;;;;;6.30;4.00;;;;;;;15.60;93.16;101256.53;5072881;28;20065;-49
2023/08/11 06:19:36;;;;;;;7.45;4.35;;;;;;;15.57;93.45;101247.03;5054801;28;20021;-50
2023/08/11 06:22:02;;;;;;;6.13;4.38;;;;;;;15.69;93.57;101248.97;5072221;28;20056;-50
2023/08/11 06:24:29;;;;;;;8.13;5.68;;;;;;;15.82;93.32;101243.38;5086900;28;20074;-50
2023/08/11 06:26:55;;;;;;;11.68;5.97;;;;;;;15.81;93.36;101252.53;5092904;28;20473;-49
2023/08/11 06:29:21;;;;;;;12.57;6.13;;;;;;;15.90;93.38;101253.84;5093376;28;20032;-50
2023/08/11 06:31:48;;;;;;;6.75;5.22;;;;;;;15.80;93.67;101249.00;5092799;28;20024;-50
2023/08/11 06:34:17;;;;;;;13.13;5.78;;;;;;;15.86;93.59;101258.06;5075186;28;20097;-47
2023/08/11 06:36:47;;;;;;;11.35;6.15;;;;;;;15.84;94.47;101252.09;5072548;28;20024;-48
2023/08/11 06:39:14;;;;;;;10.10;6.10;;;;;;;15.85;94.27;101253.72;5054933;28;20462;-51
2023/08/11 06:41:41;;;;;;;11.32;5.72;;;;;;;15.86;94.00;101252.66;5072453;28;20024;-51
2023/08/11 06:44:08;;;;;;;13.85;6.25;;;;;;;15.84;94.61;101252.09;5071907;28;20024;-51
2023/08/11 06:46:34;;;;;;;19.20;6.47;;;;;;;15.87;94.24;101253.47;5082996;22;20392;-51
2023/08/11 06:49:02;;;;;;;10.15;5.85;;;;;;;15.95;93.74;101259.38;5052163;28;20029;-51
2023/08/11 06:51:28;;;;;;;11.25;6.50;;;;;;;15.99;92.86;101252.47;5052261;28;20036;-51
2023/08/11 06:53:54;;;;;;;12.48;5.72;;;;;;;15.96;92.94;101249.41;5051835;28;20036;-51
2023/08/11 06:56:21;;;;;;;16.90;6.50;;;;;;;16.05;93.08;101253.44;5052258;28;20025;-50
2023/08/11 06:58:47;;;;;;;14.30;7.45;;;;;;;16.14;92.26;101252.00;5052201;28;20032;-48
2023/08/11 07:01:17;;;;;;;12.88;6.57;;;;;;;16.20;91.65;101258.38;5052140;28;20409;-50
2023/08/11 07:03:44;;;;;;;18.42;7.38;;;;;;;16.18;92.19;101257.78;5051769;28;20032;-51
2023/08/11 07:06:11;;;;;;;21.67;6.70;;;;;;;16.15;92.14;101253.66;5051858;28;20458;-50
2023/08/11 07:08:37;;;;;;;16.63;6.97;;;;;;;16.04;92.68;101260.69;5052315;28;20032;-48
2023/08/11 07:11:03;;;;;;;16.55;6.82;;;;;;;16.10;92.17;101258.94;5032356;28;20110;-50
2023/08/11 07:13:30;;;;;;;12.20;6.72;;;;;;;16.03;93.12;101248.25;5031486;28;20069;-50
2023/08/11 07:15:57;;;;;;;9.27;5.60;;;;;;;16.06;92.95;101255.88;5031642;28;20076;-50
2023/08/11 07:18:24;;;;;;;11.68;6.90;;;;;;;16.13;92.40;101253.06;5031836;28;20477;-51
2023/08/11 07:20:50;;;;;;;13.43;6.60;;;;;;;16.09;92.51;101266.22;5032354;28;20037;-50
2023/08/11 07:23:16;;;;;;;12.98;6.78;;;;;;;16.12;92.04;101258.72;5048185;28;20021;-48
2023/08/11 07:25:43;;;;;;;14.18;6.10;;;;;;;16.12;91.53;101262.25;5051323;28;20442;-50
2023/08/11 07:28:10;;;;;;;15.10;6.40;;;;;;;16.14;90.94;101257.41;5051620;28;20029;-48
2023/08/11 07:30:36;;;;;;;9.55;5.82;;;;;;;16.14;91.97;101256.59;5051807;28;20057;-48
2023/08/11 07:33:03;;;;;;;15.60;5.97;;;;;;;16.15;91.78;101253.66;5032337;28;20032;-50
2023/08/11 07:35:30;;;;;;;12.88;6.55;;;;;;;16.15;91.25;101250.13;5031145;28;20032;-50
2023/08/11 07:37:57;;;;;;;10.60;6.20;;;;;;;16.14;91.39;101246.63;5032894;28;20025;-49
2023/08/11 07:40:23;;;;;;;13.40;6.03;;;;;;;16.15;91.44;101247.44;5031690;28;20017;-50
2023/08/11 07:42:49;;;;;;;11.55;6.30;;;;;;;16.16;91.57;101254.47;5031733;28;20021;-49
2023/08/11 07:45:16;;;;;;;13.38;6.80;;;;;;;15.99;91.97;101257.88;5031442;28;20021;-47
2023/08/11 07:47:42;;;;;;;13.05;6.47;;;;;;;16.04;91.62;101251.75;5031007;28;20056;-50
2023/08/11 07:50:09;;;;;;;13.98;6.47;;;;;;;16.02;92.16;101251.19;5031473;28;20037;-50
2023/08/11 07:52:35;;;;;;;12.05;6.05;;;;;;;16.03;91.77;101260.91;5031183;28;20045;-50
2023/08/11 07:55:01;;;;;;;14.75;6.55;;;;;;;15.96;91.99;101255.63;5031224;28;20064;-49
2023/08/11 07:57:27;;;;;;;10.90;5.78;;;;;;;15.96;92.35;101247.53;5031633;28;20104;-48
2023/08/11 07:59:54;;;;;;;13.23;5.93;;;;;;;15.93;92.24;101245.28;5041130;28;20029;-48
2023/08/11 08:02:20;;;;;;;10.20;5.40;;;;;;;15.96;91.77;101239.44;5051543;28;20036;-46
2023/08/11 08:04:46;;;;;;;15.50;5.72;;;;;;;16.01;91.52;101236.03;5031127;28;20021;-50
2023/08/11 08:07:12;;;;;;;14.75;5.85;;;;;;;16.09;90.90;101241.91;5031745;28;20035;-49
2023/08/11 08:09:39;;;;;;;12.82;6.13;;;;;;;16.00;91.47;101237.91;5031544;28;20546;-49
2023/08/11 08:12:05;;;;;;;12.13;5.75;;;;;;;16.12;91.36;101229.00;5032917;28;20033;-50
2023/08/11 08:14:32;;;;;;;9.70;5.53;;;;;;;16.12;91.54;101229.84;5038345;28;20067;-51
2023/08/11 08:17:01;;;;;;;9.18;5.60;;;;;;;16.17;91.39;101229.97;5034560;28;20030;-50
2023/08/11 08:19:27;;;;;;;11.45;5.80;;;;;;;16.16;91.40;101235.56;5034105;28;20014;-50
2023/08/11 08:21:53;;;;;;;17.08;6.45;;;;;;;16.12;91.06;101237.94;5031470;28;20018;-48
2023/08/11 08:24:20;;;;;;;11.57;5.78;;;;;;;16.13;91.35;101233.34;5030859;28;20542;-47
2023/08/11 08:26:48;;;;;;;12.95;6.00;;;;;;;16.17;91.13;101231.84;5030971;28;20100;-49
2023/08/11 08:29:14;;;;;;;13.82;5.80;;;;;;;16.15;91.05;101232.06;5031641;28;20048;-49
2023/08/11 08:31:41;;;;;;;12.35;5.35;;;;;;;16.15;91.32;101231.22;5048659;28;20036;-48
2023/08/11 08:34:07;;;;;;;14.25;6.07;;;;;;;16.14;91.40;101240.41;5031121;28;20029;-51
2023/08/11 08:36:33;;;;;;;8.70;4.90;;;;;;;16.15;91.39;101239.34;5031138;28;20028;-50
2023/08/11 08:39:00;;;;;;;10.57;5.32;;;;;;;16.15;91.91;101244.72;5031266;28;20040;-50
2023/08/11 08:41:29;;;;;;;12.80;5.50;;;;;;;16.09;92.18;101236.50;5031139;28;20475;-49
2023/08/11 08:43:56;;;;;;;10.82;5.15;;;;;;;16.07;92.25;101235.09;5033132;28;20033;-50
2023/08/11 08:46:28;;;;;;;11.65;6.00;;;;;;;16.12;92.38;101234.41;5017586;28;20045;-51
2023/08/11 08:49:09;;;;;;;10.00;4.85;;;;;;;16.11;92.86;101228.19;5054626;28;20055;-50
2023/08/11 08:51:41;;;;;;;9.05;5.20;;;;;;;16.07;92.81;101227.81;5054677;28;20045;-50
2023/08/11 08:54:09;;;;;;;14.80;5.43;;;;;;;16.03;92.76;101229.34;5053558;28;20029;-50
2023/08/11 08:56:37;;;;;;;12.32;5.10;;;;;;;16.14;92.68;101224.19;5052711;28;20053;-48
2023/08/11 08:59:04;;;;;;;11.20;5.13;;;;;;;16.13;92.58;101222.56;5054194;28;20031;-49
2023/08/11 09:01:31;;;;;;;8.73;4.78;;;;;;;16.04;93.37;101228.28;5054096;28;20539;-50
2023/08/11 09:03:59;;;;;;;10.48;4.82;;;;;;;16.01;93.53;101233.34;5045178;28;20022;-49
2023/08/11 09:06:27;;;;;;;11.13;4.70;;;;;;;16.07;93.08;101233.22;5035947;28;20525;-51
2023/08/11 09:08:53;;;;;;;11.43;5.22;;;;;;;16.10;93.08;101240.03;5037680;28;20041;-48
2023/08/11 09:11:21;;;;;;;10.57;4.53;;;;;;;16.07;93.47;101235.94;5034500;28;20511;-50
2023/08/11 09:13:47;;;;;;;13.40;4.63;;;;;;;16.08;93.74;101237.56;5036982;28;20164;-48
2023/08/11 09:16:14;;;;;;;11.13;4.82;;;;;;;15.96;94.71;101236.72;5034117;28;20483;-50
2023/08/11 09:18:43;;;;;;;8.82;4.53;;;;;;;16.07;94.34;101229.72;5034241;28;20377;-51
2023/08/11 09:21:09;;;;;;;7.95;4.60;;;;;;;16.06;93.78;101230.78;5040916;28;20028;-51
2023/08/11 09:23:36;;;;;;;7.22;4.53;;;;;;;16.11;93.30;101241.69;5053658;28;20021;-50
2023/08/11 09:26:02;;;;;;;9.13;4.65;;;;;;;16.13;93.54;101244.16;5036200;28;20103;-50
2023/08/11 09:28:29;;;;;;;10.15;4.72;;;;;;;16.10;94.19;101238.19;5034000;28;20151;-51
2023/08/11 09:30:55;;;;;;;9.00;5.07;;;;;;;16.05;94.56;101237.22;5033778;28;20036;-50
2023/08/11 09:33:22;;;;;;;11.27;4.57;;;;;;;16.04;94.22;101235.56;5051606;28;20498;-49
2023/08/11 09:35:49;;;;;;;6.43;4.13;;;;;;;16.08;94.30;101234.03;5053711;28;20036;-50
2023/08/11 09:38:16;;;;;;;8.98;4.18;;;;;;;16.16;93.07;101227.47;5034807;28;20067;-50
2023/08/11 09:40:42;;;;;;;7.15;4.50;;;;;;;16.19;93.06;101221.63;5032955;28;20455;-49
2023/08/11 09:43:11;;;;;;;9.48;4.53;;;;;;;16.25;92.77;101231.47;5033155;28;20482;-51
2023/08/11 09:45:38;;;;;;;8.40;4.22;;;;;;;16.25;93.01;101234.19;5033953;28;20136;-50
2023/08/11 09:48:04;;;;;;;9.65;4.47;;;;;;;16.22;92.51;101238.19;5033555;28;20514;-51
2023/08/11 09:50:34;;;;;;;8.50;4.50;;;;;;;16.22;92.54;101231.97;5033039;28;20140;-49
2023/08/11 09:53:04;;;;;;;7.03;4.60;;;;;;;16.24;92.33;101235.25;5033442;28;20040;-51
2023/08/11 09:55:32;;;;;;;10.27;4.30;;;;;;;16.27;92.65;101235.59;5032686;28;20039;-51
2023/08/11 09:58:01;;;;;;;6.82;4.13;;;;;;;16.22;93.23;101229.25;5033560;28;20022;-48
2023/08/11 10:00:30;;;;;;;9.27;4.57;;;;;;;16.26;92.63;101238.53;5033656;28;20033;-48
2023/08/11 10:03:05;;;;;;;6.35;4.15;;;;;;;16.24;92.41;101232.53;5032552;28;20030;-50
2023/08/11 10:05:37;;;;;;;9.02;4.53;;;;;;;16.30;92.39;101234.31;5033826;28;20517;-50
2023/08/11 10:08:05;;;;;;;7.28;3.90;;;;;;;16.26;92.63;101233.13;5032940;28;20045;-50
2023/08/11 10:10:34;;;;;;;7.70;4.30;;;;;;;16.29;91.97;101243.47;5033292;28;20025;-50
2023/08/11 10:13:08;;;;;;;7.88;3.92;;;;;;;16.16;92.91;101239.13;5033255;28;20029;-50
2023/08/11 10:15:35;;;;;;;6.25;4.03;;;;;;;16.25;92.86;101231.47;5033403;28;20029;-47
2023/08/11 10:18:02;;;;;;;6.15;3.35;;;;;;;16.25;93.13;101229.59;5033586;28;20447;-49
2023/08/11 10:20:29;;;;;;;5.35;3.50;;;;;;;16.21;93.06;101235.69;5032926;28;20472;-50
2023/08/11 10:22:57;;;;;;;6.82;3.92;;;;;;;16.29;93.44;101236.19;5032815;28;20044;-51
2023/08/11 10:25:25;;;;;;;8.95;4.55;;;;;;;16.23;94.05;101236.31;5032654;28;20021;-51
2023/08/11 10:27:53;;;;;;;10.05;4.00;;;;;;;16.31;93.38;101235.94;5032810;28;20079;-51
2023/08/11 10:30:19;;;;;;;8.15;4.72;;;;;;;16.37;93.20;101229.59;5032897;28;20051;-51
2023/08/11 10:32:46;;;;;;;9.40;5.00;;;;;;;16.19;94.22;101227.00;5052875;28;20036;-49
2023/08/11 10:35:19;;;;;;;9.75;4.60;;;;;;;16.21;94.47;101227.59;5041853;28;20428;-49
2023/08/11 10:37:59;;;;;;;9.57;4.70;;;;;;;16.23;94.38;101222.81;5032408;28;20033;-49
2023/08/11 10:40:39;;;;;;;13.40;4.45;;;;;;;16.20;94.21;101225.94;5032545;28;20029;-52
2023/08/11 10:43:05;;;;;;;10.10;4.90;;;;;;;16.15;94.59;101223.13;5032549;28;20068;-51
2023/08/11 10:45:33;;;;;;;7.85;4.57;;;;;;;16.12;95.34;101229.00;5035955;28;20029;-51
2023/08/11 10:47:59;;;;;;;7.55;4.65;;;;;;;16.06;95.36;101217.28;5038465;28;20064;-51
2023/08/11 10:50:27;;;;;;;8.73;4.32;;;;;;;16.07;95.53;101219.72;5032489;28;20026;-48
2023/08/11 10:53:18;;;;;;;9.10;4.22;;;;;;;16.19;95.07;101217.03;5031713;28;20033;-51
2023/08/11 10:55:59;;;;;;;10.13;3.88;;;;;;;16.12;95.19;101210.13;5033002;28;20030;-49
2023/08/11 10:58:26;;;;;;;11.77;4.72;;;;;;;16.02;95.54;101211.50;5032034;28;20438;-48
2023/08/11 11:00:52;;;;;;;8.65;4.72;;;;;;;15.92;96.40;101211.25;5032307;28;20026;-50
2023/08/11 11:03:19;;;;;;;7.82;4.50;;;;;;;15.88;96.31;101210.09;5031674;28;20091;-48
2023/08/11 11:05:45;;;;;;;10.25;4.28;;;;;;;15.81;96.75;101220.97;5031911;28;20026;-49
2023/08/11 11:08:12;;;;;;;8.98;4.18;;;;;;;15.97;96.37;101222.16;5031788;28;20079;-50
2023/08/11 11:10:38;;;;;;;8.68;4.05;;;;;;;15.86;96.59;101225.66;5035864;28;20484;-48
2023/08/11 11:13:04;;;;;;;10.75;4.60;;;;;;;15.91;96.34;101217.69;5031440;28;20040;-49
2023/08/11 11:15:32;;;;;;;8.65;3.88;;;;;;;15.87;96.86;101223.78;5031893;28;20025;-50
2023/08/11 11:18:00;;;;;;;6.15;4.10;;;;;;;15.80;96.84;101223.91;5031795;28;20030;-51
2023/08/11 11:20:27;;;;;;;8.90;3.70;;;;;;;15.82;96.54;101219.09;5031739;28;20026;-49
2023/08/11 11:22:53;;;;;;;7.60;3.72;;;;;;;15.84;96.88;101225.09;5031919;28;20077;-51
2023/08/11 11:25:22;;;;;;;4.75;3.30;;;;;;;15.71;97.51;101227.97;5030525;28;20029;-50